createdAt,value
2022-09-28T00:01:19.897Z,1.80
2022-09-28T00:04:23.381Z,1.60
2022-09-28T00:07:25.295Z,0.45
2022-09-28T00:10:27.192Z,2.53
2022-09-28T00:13:31.707Z,1.58
2022-09-28T00:16:36.502Z,2.90
2022-09-28T00:19:42.710Z,2.05
2022-09-28T00:22:44.831Z,1.60
2022-09-28T00:25:47.152Z,1.63
2022-09-28T00:28:52.372Z,2.50
2022-09-28T00:31:59.983Z,2.97
2022-09-28T00:35:02.144Z,2.05
2022-09-28T00:38:04.220Z,2.23
2022-09-28T00:41:06.390Z,1.55
2022-09-28T00:44:40.505Z,1.45
2022-09-28T00:47:50.935Z,2.50
2022-09-28T00:50:53.105Z,2.03
2022-09-28T00:53:56.364Z,2.13
2022-09-28T00:56:59.269Z,1.60
2022-09-28T01:00:02.081Z,0.77
2022-09-28T01:03:04.441Z,1.42
2022-09-28T01:06:08.486Z,1.10
2022-09-28T01:09:10.900Z,1.45
2022-09-28T01:12:13.020Z,1.37
2022-09-28T01:15:15.658Z,2.13
2022-09-28T01:18:35.654Z,1.63
2022-09-28T01:22:16.455Z,2.40
2022-09-28T01:25:54.995Z,1.67
2022-09-28T01:29:06.235Z,1.15
2022-09-28T01:32:25.684Z,2.45
2022-09-28T01:35:35.667Z,1.42
2022-09-28T01:38:47.875Z,2.00
2022-09-28T01:41:53.272Z,0.60
2022-09-28T01:45:01.460Z,0.82
2022-09-28T01:48:06.956Z,1.98
2022-09-28T01:51:16.198Z,0.27
2022-09-28T01:54:25.677Z,1.30
2022-09-28T01:57:48.705Z,3.38
2022-09-28T02:00:56.396Z,1.17
2022-09-28T02:04:14.318Z,1.35
2022-09-28T02:07:34.526Z,1.27
2022-09-28T02:10:48.942Z,1.08
2022-09-28T02:14:00.154Z,1.70
2022-09-28T02:17:03.460Z,2.67
2022-09-28T02:20:07.505Z,0.80
2022-09-28T02:23:10.486Z,1.15
2022-09-28T02:26:15.732Z,1.70
2022-09-28T02:29:17.875Z,0.60
2022-09-28T02:32:20.881Z,2.78
2022-09-28T02:35:23.322Z,1.15
2022-09-28T02:38:25.771Z,1.08
2022-09-28T02:41:54.455Z,1.77
2022-09-28T02:45:06.572Z,0.70
2022-09-28T02:48:43.941Z,0.75
2022-09-28T02:52:29.460Z,2.53
2022-09-28T02:56:06.332Z,1.73
2022-09-28T02:59:25.453Z,1.20
2022-09-28T03:02:58.476Z,0.80
2022-09-28T03:06:09.710Z,0.90
2022-09-28T03:09:26.862Z,0.60
2022-09-28T03:12:30.045Z,1.50
2022-09-28T03:15:34.701Z,4.60
2022-09-28T03:18:36.771Z,1.27
2022-09-28T03:21:39.761Z,1.38
2022-09-28T03:24:41.685Z,1.08
2022-09-28T03:27:44.312Z,0.77
2022-09-28T03:30:47.435Z,3.58
2022-09-28T03:33:53.711Z,1.27
2022-09-28T03:36:55.836Z,3.67
2022-09-28T03:39:59.557Z,2.65
2022-09-28T03:43:01.526Z,1.73
2022-09-28T03:46:04.429Z,2.97
2022-09-28T03:49:10.648Z,3.17
2022-09-28T03:52:14.056Z,2.50
2022-09-28T03:55:16.330Z,1.90
2022-09-28T03:58:19.967Z,3.40
2022-09-28T04:01:22.132Z,2.25
2022-09-28T04:04:24.676Z,3.15
2022-09-28T04:07:30.768Z,4.57
2022-09-28T04:10:34.108Z,1.83
2022-09-28T04:13:37.116Z,2.33
2022-09-28T04:16:40.644Z,4.05
2022-09-28T04:19:49.013Z,1.65
2022-09-28T04:23:00.665Z,1.73
2022-09-28T04:26:05.356Z,1.98
2022-09-28T04:29:16.019Z,2.88
2022-09-28T04:32:31.622Z,3.63
2022-09-28T04:35:33.824Z,3.38
2022-09-28T04:38:52.443Z,3.38
2022-09-28T04:41:56.089Z,2.83
2022-09-28T04:44:58.849Z,1.67
2022-09-28T04:48:01.499Z,4.72
2022-09-28T04:51:39.203Z,2.47
2022-09-28T04:54:41.194Z,4.03
2022-09-28T04:57:43.216Z,2.40
2022-09-28T05:00:45.392Z,2.42
2022-09-28T05:04:00.769Z,4.00
2022-09-28T05:07:20.484Z,2.92
2022-09-28T05:10:23.483Z,14.20
2022-09-28T05:13:25.828Z,4.30
2022-09-28T05:16:28.613Z,4.17
2022-09-28T05:19:50.956Z,7.18
2022-09-28T05:22:53.172Z,4.72
2022-09-28T05:25:55.202Z,4.88
2022-09-28T05:29:00.884Z,1.97
2022-09-28T05:32:21.502Z,1.55
2022-09-28T05:35:53.796Z,0.68
2022-09-28T05:38:57.182Z,0.57
2022-09-28T05:41:59.278Z,0.63
2022-09-28T05:45:01.613Z,0.88
2022-09-28T05:48:03.946Z,0.38
2022-09-28T05:51:06.215Z,0.30
2022-09-28T05:54:08.809Z,1.20
2022-09-28T05:57:14.991Z,0.10
2022-09-28T06:00:20.767Z,1.17
2022-09-28T06:03:28.995Z,1.17
2022-09-28T06:06:31.320Z,0.30
2022-09-28T06:09:33.245Z,0.13
2022-09-28T06:12:48.630Z,1.20
2022-09-28T06:36:13.868Z,0.57
2022-09-28T06:39:16.707Z,0.53
2022-09-28T06:42:19.392Z,1.35
2022-09-28T06:45:54.570Z,1.75
2022-09-28T06:49:31.539Z,0.47
2022-09-28T06:52:54.781Z,0.52
2022-09-28T06:56:14.209Z,0.23
2022-09-28T06:59:16.178Z,0.10
2022-09-28T07:02:20.225Z,0.47
2022-09-28T07:05:45.895Z,0.10
2022-09-28T07:09:28.804Z,1.37
2022-09-28T07:12:47.820Z,0.13
2022-09-28T07:16:00.503Z,0.77
2022-09-28T07:19:02.731Z,0.73
2022-09-28T07:22:05.661Z,0.43
2022-09-28T07:25:09.487Z,0.00
2022-09-28T07:28:25.997Z,0.40
2022-09-28T07:31:44.953Z,0.20
2022-09-28T07:34:50.242Z,0.38
2022-09-28T07:38:07.880Z,0.40
2022-09-28T07:41:12.834Z,0.10
2022-09-28T07:44:20.278Z,0.20
2022-09-28T07:47:34.592Z,0.30
2022-09-28T07:51:06.181Z,0.10
2022-09-28T07:54:22.066Z,0.55
2022-09-28T07:58:01.777Z,0.40
2022-09-28T08:01:39.204Z,0.35
2022-09-28T08:04:43.333Z,0.95
2022-09-28T08:07:45.371Z,0.10
2022-09-28T08:10:48.064Z,0.20
2022-09-28T08:14:16.088Z,1.60
2022-09-28T08:17:38.681Z,0.28
2022-09-28T08:21:02.168Z,0.90
2022-09-28T08:24:04.382Z,0.88
2022-09-28T08:27:07.765Z,1.25
2022-09-28T08:30:11.360Z,0.20
2022-09-28T08:33:14.724Z,0.40
2022-09-28T08:36:16.772Z,0.93
2022-09-28T08:39:36.766Z,0.65
2022-09-28T08:43:01.428Z,0.90
2022-09-28T08:46:27.283Z,0.20
2022-09-28T08:49:50.353Z,0.27
2022-09-28T08:53:35.001Z,0.80
2022-09-28T08:57:07.335Z,0.45
2022-09-28T09:00:20.136Z,0.30
2022-09-28T09:03:35.901Z,0.20
2022-09-28T09:07:03.329Z,0.70
2022-09-28T09:10:21.448Z,0.20
2022-09-28T09:13:42.364Z,0.85
2022-09-28T09:17:00.377Z,0.32
2022-09-28T09:20:43.664Z,0.20
2022-09-28T09:24:27.346Z,1.00
2022-09-28T09:27:50.440Z,0.30
2022-09-28T09:30:55.687Z,0.30
2022-09-28T09:34:03.960Z,0.52
2022-09-28T09:37:48.120Z,1.00
2022-09-28T09:41:35.336Z,0.50
2022-09-28T09:45:41.611Z,0.73
2022-09-28T09:49:38.918Z,0.30
2022-09-28T09:52:55.756Z,0.63
2022-09-28T09:56:09.961Z,0.40
2022-09-28T09:59:33.674Z,0.67
2022-09-28T10:02:42.223Z,0.20
2022-09-28T10:06:10.922Z,0.32
2022-09-28T10:09:25.055Z,0.20
2022-09-28T10:12:27.114Z,0.30
2022-09-28T10:15:32.008Z,1.33
2022-09-28T10:18:43.920Z,0.35
2022-09-28T10:22:06.023Z,0.20
2022-09-28T10:25:11.967Z,0.30
2022-09-28T10:28:21.420Z,0.67
2022-09-28T10:31:45.390Z,0.60
2022-09-28T10:35:19.377Z,0.40
2022-09-28T10:38:26.482Z,0.50
2022-09-28T10:41:32.367Z,0.43
2022-09-28T10:45:23.094Z,0.97
2022-09-28T10:48:26.319Z,0.30
2022-09-28T10:51:49.860Z,2.42
2022-09-28T10:55:30.521Z,0.68
2022-09-28T10:58:42.146Z,0.40
2022-09-28T11:01:54.200Z,0.40
2022-09-28T11:04:59.037Z,0.40
2022-09-28T11:08:07.141Z,0.47
2022-09-28T11:11:21.677Z,0.30
2022-09-28T11:14:42.599Z,0.75
2022-09-28T11:17:51.142Z,0.83
2022-09-28T11:21:15.041Z,0.97
2022-09-28T11:24:27.355Z,0.40
2022-09-28T11:27:33.491Z,0.55
2022-09-28T11:30:45.992Z,0.85
2022-09-28T11:34:14.003Z,1.00
2022-09-28T11:37:48.234Z,0.20
2022-09-28T11:41:02.485Z,0.30
2022-09-28T11:44:38.771Z,0.43
2022-09-28T11:48:01.915Z,0.63
2022-09-28T11:51:15.415Z,0.30
2022-09-28T11:54:38.756Z,0.67
2022-09-28T11:57:44.976Z,0.50
2022-09-28T12:00:53.210Z,0.50
2022-09-28T12:04:05.667Z,0.68
2022-09-28T12:07:27.361Z,0.40
2022-09-28T12:10:58.485Z,0.80
2022-09-28T12:14:30.663Z,0.82
2022-09-28T12:17:58.526Z,0.30
2022-09-28T12:21:24.774Z,0.40
2022-09-28T12:25:03.889Z,0.30
2022-09-28T12:28:13.321Z,0.27
2022-09-28T12:31:20.302Z,0.70
2022-09-28T12:34:22.822Z,0.30
2022-09-28T12:37:34.949Z,0.43
2022-09-28T12:40:44.778Z,0.60
2022-09-28T12:43:56.357Z,0.90
2022-09-28T12:47:16.755Z,0.52
2022-09-28T12:50:38.702Z,0.32
2022-09-28T12:53:48.177Z,0.30
2022-09-28T12:57:00.454Z,0.20
2022-09-28T13:00:10.989Z,1.23
2022-09-28T13:03:19.128Z,0.20
2022-09-28T13:06:34.317Z,0.40
2022-09-28T13:10:07.724Z,0.25
2022-09-28T13:13:27.955Z,0.30
2022-09-28T13:16:44.052Z,0.30
2022-09-28T13:19:58.211Z,0.43
2022-09-28T13:23:12.648Z,0.25
2022-09-28T13:26:37.922Z,0.20
2022-09-28T13:29:40.789Z,0.33
2022-09-28T13:32:44.177Z,0.23
2022-09-28T13:35:46.190Z,0.50
2022-09-28T13:38:49.836Z,0.50
2022-09-28T13:41:51.955Z,0.50
2022-09-28T13:45:15.181Z,0.40
2022-09-28T13:48:21.818Z,0.30
2022-09-28T13:51:44.976Z,0.30
2022-09-28T13:55:12.057Z,0.20
2022-09-28T13:58:46.745Z,0.25
2022-09-28T14:02:14.885Z,0.30
2022-09-28T14:05:23.073Z,0.50
2022-09-28T14:08:34.736Z,0.60
2022-09-28T14:11:36.850Z,0.40
2022-09-28T14:14:51.315Z,0.65
2022-09-28T14:18:01.182Z,0.50
2022-09-28T14:21:12.416Z,0.20
2022-09-28T14:24:30.233Z,0.52
2022-09-28T14:27:34.960Z,1.25
2022-09-28T14:30:42.896Z,0.52
2022-09-28T14:33:56.992Z,0.50
2022-09-28T14:37:17.860Z,0.53
2022-09-28T14:40:49.538Z,0.90
2022-09-28T14:44:02.903Z,0.30
2022-09-28T14:47:35.837Z,0.47
2022-09-28T14:50:37.834Z,0.20
2022-09-28T14:53:40.002Z,0.73
2022-09-28T14:56:54.237Z,0.20
2022-09-28T14:59:59.660Z,1.20
2022-09-28T15:03:07.741Z,0.30
2022-09-28T15:06:16.227Z,0.60
2022-09-28T15:09:32.405Z,0.60
2022-09-28T15:12:35.004Z,0.35
2022-09-28T15:15:40.131Z,0.40
2022-09-28T15:19:10.689Z,0.55
2022-09-28T15:22:16.933Z,1.50
2022-09-28T15:25:21.807Z,0.40
2022-09-28T15:28:24.824Z,0.73
2022-09-28T15:31:30.288Z,2.97
2022-09-28T15:34:53.008Z,6.22
2022-09-28T15:37:55.402Z,7.37
2022-09-28T15:40:57.622Z,2.90
2022-09-28T15:44:29.051Z,1.67
2022-09-28T15:47:32.979Z,2.70
2022-09-28T15:50:47.463Z,1.83
2022-09-28T15:53:58.367Z,1.97
2022-09-28T15:57:02.850Z,7.17
2022-09-28T16:00:25.313Z,5.20
2022-09-28T16:03:31.223Z,4.63
2022-09-28T16:06:33.148Z,0.65
2022-09-28T16:10:15.921Z,0.60
2022-09-28T16:13:20.599Z,0.93
2022-09-28T16:16:36.648Z,1.02
2022-09-28T16:19:39.643Z,0.50
2022-09-28T16:22:43.111Z,0.43
2022-09-28T16:25:54.253Z,0.43
2022-09-28T16:28:56.383Z,0.70
2022-09-28T16:32:26.886Z,0.73
2022-09-28T16:35:29.096Z,0.10
2022-09-28T16:38:31.631Z,0.88
2022-09-28T16:41:33.581Z,2.90
2022-09-28T16:44:36.881Z,5.03
2022-09-28T16:47:40.510Z,5.88
2022-09-28T16:50:42.648Z,4.20
2022-09-28T16:54:04.099Z,5.18
2022-09-28T16:57:08.117Z,7.47
2022-09-28T17:00:24.527Z,7.53
2022-09-28T17:03:27.958Z,3.35
2022-09-28T17:06:30.038Z,3.95
2022-09-28T17:09:33.157Z,5.90
2022-09-28T17:12:35.130Z,4.93
2022-09-28T17:15:37.394Z,1.70
2022-09-28T17:18:40.076Z,1.73
2022-09-28T17:21:48.893Z,4.22
2022-09-28T17:24:50.825Z,3.40
2022-09-28T17:27:55.186Z,2.57
2022-09-28T17:30:57.796Z,1.83
2022-09-28T17:33:59.886Z,9.63
2022-09-28T17:37:01.845Z,10.60
2022-09-28T17:40:18.525Z,5.82
2022-09-28T17:43:22.188Z,8.13
2022-09-28T17:46:33.257Z,2.92
2022-09-28T17:49:35.256Z,1.52
2022-09-28T17:52:38.044Z,1.20
2022-09-28T17:55:40.518Z,2.03
2022-09-28T17:58:42.489Z,2.27
2022-09-28T18:01:44.693Z,2.35
2022-09-28T18:04:52.293Z,1.13
2022-09-28T18:07:54.728Z,1.17
2022-09-28T18:10:57.012Z,3.15
2022-09-28T18:13:59.109Z,0.67
2022-09-28T18:17:01.181Z,1.77
2022-09-28T18:20:04.120Z,3.45
2022-09-28T18:23:06.245Z,1.48
2022-09-28T18:26:13.259Z,1.77
2022-09-28T18:29:17.334Z,1.70
2022-09-28T18:32:19.482Z,2.80
2022-09-28T18:35:23.145Z,2.20
2022-09-28T18:38:25.579Z,3.10
2022-09-28T18:41:28.377Z,3.15
2022-09-28T18:44:30.415Z,1.67
2022-09-28T18:47:33.143Z,3.80
2022-09-28T18:50:35.412Z,3.33
2022-09-28T18:53:38.030Z,2.35
2022-09-28T18:56:40.347Z,3.42
2022-09-28T18:59:42.774Z,3.90
2022-09-28T19:02:44.933Z,4.80
2022-09-28T19:05:47.023Z,2.20
2022-09-28T19:08:53.733Z,3.83
2022-09-28T19:11:55.722Z,2.50
2022-09-28T19:14:59.619Z,8.07
2022-09-28T19:18:02.504Z,4.95
2022-09-28T19:21:06.911Z,5.25
2022-09-28T19:24:13.356Z,4.90
2022-09-28T19:27:15.370Z,2.88
2022-09-28T19:30:18.011Z,1.73
2022-09-28T19:33:20.501Z,2.78
2022-09-28T19:36:24.881Z,2.67
2022-09-28T19:39:26.817Z,3.10
2022-09-28T19:42:28.781Z,3.78
2022-09-28T19:45:30.862Z,2.63
2022-09-28T19:48:34.530Z,2.28
2022-09-28T19:51:38.819Z,2.25
2022-09-28T19:54:57.326Z,1.50
2022-09-28T19:58:01.815Z,0.68
2022-09-28T20:01:07.184Z,1.70
2022-09-28T20:04:09.265Z,2.47
2022-09-28T20:07:11.215Z,4.63
2022-09-28T20:10:13.334Z,1.55
2022-09-28T20:13:15.277Z,2.15
2022-09-28T20:16:18.960Z,3.70
2022-09-28T20:19:23.025Z,1.05
2022-09-28T20:22:24.941Z,1.27
2022-09-28T20:25:27.223Z,0.93
2022-09-28T20:28:29.230Z,2.53
2022-09-28T20:31:31.311Z,1.83
2022-09-28T20:34:34.432Z,2.70
2022-09-28T20:37:36.360Z,4.88
2022-09-28T20:40:41.071Z,4.57
2022-09-28T20:43:43.568Z,1.75
2022-09-28T20:46:45.590Z,7.13
2022-09-28T20:49:47.652Z,1.02
2022-09-28T20:52:49.524Z,1.33
2022-09-28T20:56:17.217Z,0.98
2022-09-28T20:59:22.659Z,1.38
2022-09-28T21:02:25.212Z,2.57
2022-09-28T21:05:27.132Z,1.98
2022-09-28T21:08:29.725Z,1.27
2022-09-28T21:11:33.078Z,1.17
2022-09-28T21:14:35.232Z,4.95
2022-09-28T21:17:37.224Z,1.90
2022-09-28T21:20:50.433Z,0.80
2022-09-28T21:23:53.404Z,0.63
2022-09-28T21:26:55.608Z,2.63
2022-09-28T21:29:57.513Z,0.75
2022-09-28T21:33:01.470Z,0.87
2022-09-28T21:36:05.441Z,1.90
2022-09-28T21:39:10.407Z,1.15
2022-09-28T21:42:12.585Z,0.80
2022-09-28T21:45:14.534Z,2.20
2022-09-28T21:48:16.394Z,0.77
2022-09-28T21:51:18.379Z,0.28
2022-09-28T21:54:20.486Z,0.85
2022-09-28T21:57:22.602Z,0.77
2022-09-28T22:00:24.621Z,1.15
2022-09-28T22:03:26.954Z,1.50
2022-09-28T22:06:29.054Z,1.05
2022-09-28T22:09:31.112Z,0.95
2022-09-28T22:12:33.283Z,0.20
2022-09-28T22:15:35.704Z,1.15
2022-09-28T22:18:38.091Z,0.33
2022-09-28T22:21:40.127Z,0.35
2022-09-28T22:24:42.041Z,1.05
2022-09-28T22:27:46.050Z,0.17
2022-09-28T22:30:48.122Z,0.93
2022-09-28T22:35:32.298Z,0.77
2022-09-28T22:38:35.244Z,0.80
2022-09-28T22:41:37.234Z,1.00
2022-09-28T22:44:40.521Z,0.65
2022-09-28T22:47:42.746Z,1.20
2022-09-28T22:50:51.655Z,0.30
2022-09-28T22:53:53.626Z,0.30
2022-09-28T22:56:55.578Z,0.57
2022-09-28T22:59:57.507Z,1.10
2022-09-28T23:02:59.444Z,1.17
2022-09-28T23:06:01.959Z,0.33
2022-09-28T23:09:04.120Z,0.95
2022-09-28T23:12:06.095Z,1.33
2022-09-28T23:15:08.934Z,0.95
2022-09-28T23:18:10.987Z,0.40
2022-09-28T23:21:18.115Z,0.13
2022-09-28T23:24:20.035Z,0.60
2022-09-28T23:27:22.084Z,0.60
2022-09-28T23:30:25.031Z,1.63
2022-09-28T23:33:27.001Z,0.68
2022-09-28T23:36:29.101Z,0.77
2022-09-28T23:39:31.044Z,0.30
2022-09-28T23:42:34.716Z,0.68
2022-09-28T23:45:36.841Z,0.35
2022-09-28T23:48:38.924Z,2.38
2022-09-28T23:51:40.808Z,0.60
2022-09-28T23:54:42.690Z,0.70
2022-09-28T23:57:45.283Z,1.80
